Time;durP1;ratioP1;P1;durP2;ratioP2;P2;SDS_P1;SDS_P2;PMS_P1;PMS_P2;Temp;Humidity;BMP_temperature;BMP_pressure;BME280_temperature;BME280_humidity;BME280_pressure;Samples;Min_cycle;Max_cycle;Signal;HPM_P1;HPM_P2
2023/05/10 00:00:27;;;;;;;1.10;1.00;;;19.70;68.90;;;;;;4956790;28;20276;-68
2023/05/10 00:02:53;;;;;;;1.20;1.10;;;19.70;68.80;;;;;;4956760;28;20235;-68
2023/05/10 00:05:18;;;;;;;2.00;1.20;;;19.70;68.80;;;;;;4956612;28;20217;-67
2023/05/10 00:07:44;;;;;;;1.30;1.20;;;19.70;68.80;;;;;;4974061;28;20280;-68
2023/05/10 00:10:11;;;;;;;1.10;1.00;;;19.70;68.80;;;;;;4972868;28;20575;-68
2023/05/10 00:12:37;;;;;;;1.30;1.20;;;19.70;68.80;;;;;;4956768;28;20264;-68
2023/05/10 00:15:04;;;;;;;1.85;1.10;;;19.70;68.80;;;;;;4940266;28;20205;-67
2023/05/10 00:17:30;;;;;;;1.20;1.08;;;19.70;68.80;;;;;;4940506;28;20685;-67
2023/05/10 00:19:55;;;;;;;1.00;1.00;;;19.70;68.70;;;;;;4940689;28;20213;-67
2023/05/10 00:22:21;;;;;;;1.17;1.00;;;19.70;68.70;;;;;;4955903;28;20243;-68
2023/05/10 00:24:47;;;;;;;1.20;1.10;;;19.70;68.70;;;;;;4956484;28;20213;-68
2023/05/10 00:27:13;;;;;;;0.80;0.80;;;19.70;68.80;;;;;;4956200;28;20205;-67
2023/05/10 00:29:39;;;;;;;1.10;1.10;;;19.70;68.70;;;;;;4940637;28;20273;-68
2023/05/10 00:32:04;;;;;;;1.20;1.10;;;19.60;68.70;;;;;;4956424;28;20212;-67
2023/05/10 00:34:30;;;;;;;1.13;1.13;;;19.60;68.70;;;;;;4956160;28;20711;-68
2023/05/10 00:36:56;;;;;;;1.02;1.02;;;19.70;68.80;;;;;;4972157;28;20201;-68
2023/05/10 00:39:22;;;;;;;2.83;1.10;;;19.70;68.70;;;;;;4956245;28;20186;-68
2023/05/10 00:41:49;;;;;;;1.35;1.00;;;19.70;68.70;;;;;;4956141;28;20216;-68
2023/05/10 00:44:15;;;;;;;1.52;0.82;;;19.60;68.70;;;;;;4940319;28;20225;-67
2023/05/10 00:46:41;;;;;;;1.00;1.00;;;19.60;68.60;;;;;;4955944;28;20225;-67
2023/05/10 00:49:07;;;;;;;1.08;0.90;;;19.60;68.60;;;;;;4956316;28;20193;-68
2023/05/10 00:51:33;;;;;;;1.00;1.00;;;19.60;68.70;;;;;;4956103;28;20190;-67
2023/05/10 00:53:59;;;;;;;1.27;1.17;;;19.60;68.70;;;;;;4970587;28;20205;-67
2023/05/10 00:56:26;;;;;;;0.82;0.82;;;19.60;68.70;;;;;;4955823;28;20263;-68
2023/05/10 00:58:52;;;;;;;1.98;1.30;;;19.60;68.70;;;;;;4971889;28;20196;-67
2023/05/10 01:01:19;;;;;;;1.00;1.00;;;19.60;68.70;;;;;;4973380;28;20185;-68
2023/05/10 01:03:46;;;;;;;1.30;1.20;;;19.60;68.70;;;;;;4956312;28;20235;-68
2023/05/10 01:06:13;;;;;;;1.30;1.20;;;19.60;68.70;;;;;;4956128;28;20236;-67
2023/05/10 01:08:39;;;;;;;1.20;1.10;;;19.60;68.70;;;;;;4956231;28;20197;-67
2023/05/10 01:11:05;;;;;;;1.52;0.85;;;19.60;68.70;;;;;;4955815;28;20193;-68
2023/05/10 01:13:37;;;;;;;0.80;0.80;;;19.60;68.70;;;;;;4939935;28;20264;-68
2023/05/10 01:16:03;;;;;;;0.80;0.80;;;19.60;68.70;;;;;;4955866;28;20224;-68
2023/05/10 01:18:40;;;;;;;1.10;0.98;;;19.60;68.70;;;;;;4956235;28;20641;-67
2023/05/10 01:21:41;;;;;;;0.80;0.80;;;19.60;68.60;;;;;;4939938;28;20189;-67
2023/05/10 01:24:25;;;;;;;0.90;0.90;;;19.60;68.60;;;;;;4971585;28;20190;-67
2023/05/10 01:27:35;;;;;;;0.82;0.80;;;19.60;68.70;;;;;;4963801;28;20213;-68
2023/05/10 01:30:21;;;;;;;0.88;0.88;;;19.60;68.60;;;;;;4878733;29;20270;-67
2023/05/10 01:33:20;;;;;;;1.00;1.00;;;19.60;68.60;;;;;;4939474;28;20236;-67
2023/05/10 01:36:25;;;;;;;1.08;1.00;;;19.60;68.60;;;;;;4943796;28;20209;-68
2023/05/10 01:39:31;;;;;;;1.10;1.10;;;19.60;68.50;;;;;;4977057;28;20240;-68
2023/05/10 01:42:06;;;;;;;0.93;0.90;;;19.60;68.50;;;;;;4904319;28;20640;-67
2023/05/10 01:45:03;;;;;;;0.88;0.73;;;19.60;68.50;;;;;;4959272;28;20263;-67
2023/05/10 01:47:40;;;;;;;0.75;0.75;;;19.60;68.50;;;;;;4987941;28;20190;-67
2023/05/10 01:50:19;;;;;;;0.80;0.80;;;19.60;68.50;;;;;;4959197;28;20181;-67
2023/05/10 01:52:54;;;;;;;0.68;0.68;;;19.60;68.50;;;;;;4975600;28;20349;-67
2023/05/10 01:55:25;;;;;;;0.60;0.60;;;19.60;68.50;;;;;;4958930;28;20232;-67
2023/05/10 01:58:01;;;;;;;0.73;0.73;;;19.60;68.50;;;;;;4943372;28;20204;-67
2023/05/10 02:00:29;;;;;;;0.95;0.70;;;19.60;68.50;;;;;;4943145;28;20188;-67
2023/05/10 02:02:56;;;;;;;1.25;1.15;;;19.60;68.50;;;;;;4991208;28;20582;-68
2023/05/10 02:05:24;;;;;;;0.82;0.82;;;19.60;68.50;;;;;;4958847;28;20213;-67
2023/05/10 02:07:51;;;;;;;0.73;0.73;;;19.60;68.50;;;;;;4967286;28;20186;-67
2023/05/10 02:10:19;;;;;;;0.80;0.80;;;19.60;68.50;;;;;;4974975;28;20708;-68
2023/05/10 02:12:49;;;;;;;0.80;0.80;;;19.60;68.50;;;;;;4991015;28;20209;-68
2023/05/10 02:15:21;;;;;;;0.60;0.60;;;19.60;68.50;;;;;;4958709;28;20206;-67
2023/05/10 02:17:47;;;;;;;0.90;0.90;;;19.60;68.50;;;;;;4959058;28;20611;-67
2023/05/10 02:20:15;;;;;;;0.95;0.90;;;19.60;68.50;;;;;;4966700;28;20196;-67
2023/05/10 02:22:43;;;;;;;0.63;0.63;;;19.60;68.50;;;;;;4957515;28;20192;-68
2023/05/10 02:25:13;;;;;;;0.70;0.70;;;19.60;68.60;;;;;;4958339;28;20312;-67
2023/05/10 02:27:43;;;;;;;1.00;1.00;;;19.60;68.50;;;;;;4958441;28;20197;-68
2023/05/10 02:30:11;;;;;;;0.90;0.90;;;19.60;68.50;;;;;;4958293;28;20194;-68
2023/05/10 02:32:37;;;;;;;0.60;0.60;;;19.60;68.50;;;;;;4975709;28;20225;-68
2023/05/10 02:35:05;;;;;;;0.75;0.75;;;19.60;68.50;;;;;;4958229;28;20225;-67
2023/05/10 02:37:32;;;;;;;0.80;0.80;;;19.60;68.50;;;;;;4958173;28;20190;-67
2023/05/10 02:39:59;;;;;;;0.75;0.75;;;19.50;68.40;;;;;;4942520;28;20182;-68
2023/05/10 02:42:30;;;;;;;0.70;0.70;;;19.60;69.20;;;;;;4958600;28;20563;-68
2023/05/10 02:45:03;;;;;;;0.77;0.70;;;19.60;68.50;;;;;;4957375;28;20271;-67
2023/05/10 02:47:29;;;;;;;0.60;0.60;;;19.60;68.40;;;;;;4942099;28;20200;-67
2023/05/10 02:49:55;;;;;;;0.73;0.50;;;19.60;68.40;;;;;;4958147;28;20201;-67
2023/05/10 02:52:39;;;;;;;0.98;0.70;;;19.60;68.30;;;;;;4957996;28;20220;-67
2023/05/10 02:55:08;;;;;;;0.63;0.63;;;19.60;68.30;;;;;;4941597;28;20209;-68
2023/05/10 02:57:38;;;;;;;1.45;0.70;;;19.60;68.30;;;;;;4957914;28;20182;-68
2023/05/10 03:00:05;;;;;;;0.70;0.70;;;19.50;68.30;;;;;;4942075;28;20272;-67
2023/05/10 03:02:31;;;;;;;0.70;0.70;;;19.60;68.40;;;;;;4958025;28;20207;-68
2023/05/10 03:04:56;;;;;;;0.80;0.60;;;19.60;68.40;;;;;;4957390;28;20214;-68
2023/05/10 03:07:23;;;;;;;0.70;0.70;;;19.50;68.30;;;;;;4941622;28;20200;-67
2023/05/10 03:09:49;;;;;;;0.65;0.65;;;19.50;68.20;;;;;;4958017;28;20273;-68
2023/05/10 03:13:04;;;;;;;0.82;0.82;;;19.50;68.30;;;;;;4957482;28;20238;-68
2023/05/10 03:15:48;;;;;;;0.73;0.73;;;19.50;68.20;;;;;;4962051;28;20285;-68
2023/05/10 03:18:40;;;;;;;0.80;0.80;;;19.60;68.30;;;;;;4981092;28;20246;-67
2023/05/10 03:21:12;;;;;;;0.73;0.73;;;19.50;68.20;;;;;;4957584;28;20233;-68
2023/05/10 03:23:47;;;;;;;1.95;1.00;;;19.50;68.20;;;;;;4967190;28;20192;-68
2023/05/10 03:26:28;;;;;;;1.10;0.80;;;19.60;68.30;;;;;;4956390;28;20227;-68
2023/05/10 03:29:04;;;;;;;0.75;0.75;;;19.50;68.20;;;;;;4964412;28;20193;-68
2023/05/10 03:31:30;;;;;;;0.70;0.70;;;19.50;68.20;;;;;;4973623;28;20194;-68
2023/05/10 03:33:55;;;;;;;1.00;0.90;;;19.50;68.20;;;;;;4965359;28;20332;-67
2023/05/10 03:36:25;;;;;;;1.48;0.88;;;19.50;68.20;;;;;;4989661;28;20224;-67
2023/05/10 03:38:51;;;;;;;0.60;0.60;;;19.50;68.10;;;;;;4974599;28;20192;-67
2023/05/10 03:41:17;;;;;;;0.80;0.80;;;19.50;68.10;;;;;;4957124;28;20665;-67
2023/05/10 03:43:43;;;;;;;0.60;0.60;;;19.50;68.10;;;;;;4957036;28;20189;-67
2023/05/10 03:46:08;;;;;;;0.68;0.68;;;19.50;68.10;;;;;;4956794;28;20224;-67
2023/05/10 03:48:34;;;;;;;0.60;0.60;;;19.50;68.10;;;;;;4957096;28;20212;-68
2023/05/10 03:51:00;;;;;;;0.63;0.63;;;19.50;68.10;;;;;;4940980;28;20271;-67
2023/05/10 03:53:26;;;;;;;0.77;0.77;;;19.50;68.10;;;;;;4956995;28;20214;-67
2023/05/10 03:55:52;;;;;;;0.60;0.60;;;19.50;68.10;;;;;;4940540;28;20296;-67
2023/05/10 03:58:18;;;;;;;0.70;0.70;;;19.50;68.10;;;;;;4955898;28;20280;-68
2023/05/10 04:00:45;;;;;;;0.60;0.60;;;19.50;68.10;;;;;;4956892;28;20206;-67
2023/05/10 04:03:12;;;;;;;0.50;0.50;;;19.50;68.10;;;;;;4940806;28;20189;-68
2023/05/10 04:05:38;;;;;;;0.43;0.43;;;19.50;68.10;;;;;;4941093;28;20259;-68
2023/05/10 04:08:05;;;;;;;0.60;0.60;;;19.50;68.10;;;;;;4956580;28;20291;-67
2023/05/10 04:10:31;;;;;;;0.85;0.52;;;19.50;68.10;;;;;;4956617;28;20197;-67
2023/05/10 04:12:57;;;;;;;0.70;0.70;;;19.50;68.10;;;;;;4956472;28;20242;-67
2023/05/10 04:15:24;;;;;;;0.70;0.70;;;19.50;68.10;;;;;;4956439;28;20291;-67
2023/05/10 04:17:50;;;;;;;0.70;0.70;;;19.50;68.10;;;;;;4956751;28;20182;-67
2023/05/10 04:20:16;;;;;;;0.65;0.65;;;19.50;68.00;;;;;;4956560;28;20201;-67
2023/05/10 04:22:41;;;;;;;1.45;0.70;;;19.50;68.10;;;;;;4955140;28;20194;-67
2023/05/10 04:25:08;;;;;;;0.60;0.60;;;19.50;68.00;;;;;;4973594;28;20224;-67
2023/05/10 04:27:34;;;;;;;0.60;0.60;;;19.50;68.00;;;;;;4969336;28;20198;-67
2023/05/10 04:29:59;;;;;;;0.60;0.60;;;19.50;68.00;;;;;;4985916;28;20191;-66
2023/05/10 04:32:25;;;;;;;1.40;0.70;;;19.50;68.00;;;;;;4973613;28;20230;-67
2023/05/10 04:34:51;;;;;;;0.50;0.50;;;19.50;68.00;;;;;;4972507;28;20205;-67
2023/05/10 04:37:17;;;;;;;0.50;0.50;;;19.50;68.00;;;;;;4940215;28;20224;-67
2023/05/10 04:39:43;;;;;;;0.70;0.70;;;19.50;68.00;;;;;;4969503;28;20539;-68
2023/05/10 04:42:09;;;;;;;0.68;0.60;;;19.50;68.00;;;;;;4954761;28;20190;-67
2023/05/10 04:44:36;;;;;;;0.70;0.63;;;19.50;68.00;;;;;;4973433;28;20260;-68
2023/05/10 04:47:02;;;;;;;0.77;0.77;;;19.50;68.00;;;;;;4972308;28;20185;-68
2023/05/10 04:49:29;;;;;;;0.80;0.60;;;19.50;68.00;;;;;;4973331;28;20197;-68
2023/05/10 04:51:56;;;;;;;0.80;0.80;;;19.50;68.00;;;;;;4973291;28;20213;-68
2023/05/10 04:54:21;;;;;;;0.60;0.60;;;19.50;67.90;;;;;;4955706;28;20284;-68
2023/05/10 04:56:47;;;;;;;0.70;0.70;;;19.50;68.00;;;;;;4955922;28;20285;-67
2023/05/10 04:59:13;;;;;;;0.55;0.55;;;19.50;68.00;;;;;;4955882;28;20177;-67
2023/05/10 05:01:39;;;;;;;0.68;0.68;;;19.50;68.00;;;;;;4955941;28;20189;-67
2023/05/10 05:04:05;;;;;;;0.80;0.80;;;19.50;68.00;;;;;;4973048;28;20190;-67
2023/05/10 05:06:31;;;;;;;0.75;0.75;;;19.50;68.00;;;;;;4955950;28;20189;-68
2023/05/10 05:08:56;;;;;;;0.80;0.80;;;19.50;68.00;;;;;;4957776;28;20194;-68
2023/05/10 05:11:22;;;;;;;0.60;0.60;;;19.50;68.00;;;;;;4959928;28;20193;-69
2023/05/10 05:13:48;;;;;;;0.70;0.70;;;19.50;68.00;;;;;;4959797;28;20237;-68
2023/05/10 05:16:14;;;;;;;0.80;0.80;;;19.50;68.00;;;;;;4959741;28;20221;-68
2023/05/10 05:18:39;;;;;;;0.75;0.60;;;19.50;68.00;;;;;;4959941;28;20189;-68
2023/05/10 05:21:16;;;;;;;0.50;0.50;;;19.50;68.00;;;;;;4959588;28;20193;-67
2023/05/10 05:23:42;;;;;;;0.73;0.73;;;19.50;68.00;;;;;;4943720;28;20185;-68
2023/05/10 05:26:09;;;;;;;1.25;0.70;;;19.50;68.70;;;;;;4959521;28;20232;-67
2023/05/10 05:28:37;;;;;;;0.80;0.80;;;19.50;68.00;;;;;;4972560;28;20197;-68
2023/05/10 05:31:04;;;;;;;0.77;0.70;;;19.50;67.90;;;;;;4956432;28;20221;-67
2023/05/10 05:33:30;;;;;;;0.70;0.70;;;19.50;67.90;;;;;;4959546;28;20251;-68
2023/05/10 05:35:55;;;;;;;0.60;0.60;;;19.50;67.90;;;;;;4959509;28;20202;-68
2023/05/10 05:38:21;;;;;;;0.70;0.70;;;19.50;67.90;;;;;;4959565;28;20621;-68
2023/05/10 05:40:47;;;;;;;0.60;0.60;;;19.50;67.90;;;;;;4959749;28;20190;-69
2023/05/10 05:43:13;;;;;;;0.70;0.70;;;19.50;67.90;;;;;;4959371;28;20217;-67
2023/05/10 05:45:39;;;;;;;0.50;0.50;;;19.50;68.00;;;;;;4959331;28;20770;-69
2023/05/10 05:48:05;;;;;;;1.27;0.70;;;19.50;68.00;;;;;;4942918;28;20228;-67
2023/05/10 05:50:31;;;;;;;0.60;0.60;;;19.50;68.00;;;;;;4974674;28;20197;-68
2023/05/10 05:52:57;;;;;;;1.15;0.85;;;19.50;68.00;;;;;;4942821;28;20260;-68
2023/05/10 05:55:23;;;;;;;1.77;0.70;;;19.50;68.00;;;;;;4975289;28;20280;-67
2023/05/10 05:57:49;;;;;;;0.60;0.60;;;19.50;68.00;;;;;;4958935;28;20545;-67
2023/05/10 06:00:16;;;;;;;0.50;0.50;;;19.50;68.00;;;;;;4958790;28;20198;-68
2023/05/10 06:02:41;;;;;;;1.15;0.88;;;19.40;67.90;;;;;;4976360;28;20233;-68
2023/05/10 06:05:08;;;;;;;1.75;0.68;;;19.40;68.00;;;;;;4958885;28;20251;-67
2023/05/10 06:07:33;;;;;;;0.60;0.60;;;19.40;68.00;;;;;;4958855;28;20198;-68
2023/05/10 06:09:59;;;;;;;1.80;0.77;;;19.50;68.00;;;;;;4975346;28;20197;-68
2023/05/10 06:12:25;;;;;;;0.60;0.60;;;19.40;67.90;;;;;;4958773;28;20237;-67
2023/05/10 06:14:50;;;;;;;1.48;0.80;;;19.50;68.00;;;;;;4958824;28;20213;-67
2023/05/10 06:17:16;;;;;;;0.75;0.75;;;19.50;68.00;;;;;;4958491;28;20237;-68
2023/05/10 06:19:42;;;;;;;0.57;0.57;;;19.50;68.00;;;;;;4958102;28;20189;-68
2023/05/10 06:22:08;;;;;;;1.05;0.70;;;19.50;68.00;;;;;;4958963;28;20193;-68
2023/05/10 06:24:33;;;;;;;0.73;0.63;;;19.50;68.00;;;;;;4942416;28;20218;-67
2023/05/10 06:27:00;;;;;;;1.38;0.80;;;19.50;68.00;;;;;;4958705;28;20190;-68
2023/05/10 06:29:26;;;;;;;0.77;0.70;;;19.50;68.00;;;;;;4958475;28;20193;-67
2023/05/10 06:31:51;;;;;;;0.60;0.60;;;19.50;67.90;;;;;;4975690;28;20209;-68
2023/05/10 06:34:17;;;;;;;1.20;0.55;;;19.50;68.00;;;;;;4942464;28;20221;-67
2023/05/10 06:36:43;;;;;;;0.65;0.60;;;19.50;68.10;;;;;;4958228;28;20186;-67
2023/05/10 06:39:09;;;;;;;1.35;0.60;;;19.50;68.00;;;;;;4958297;28;20198;-68
2023/05/10 06:41:35;;;;;;;0.77;0.70;;;19.50;68.00;;;;;;4958686;28;20205;-67
2023/05/10 06:44:00;;;;;;;1.02;0.77;;;19.50;67.90;;;;;;4958189;28;20193;-67
2023/05/10 06:46:26;;;;;;;0.80;0.80;;;19.50;68.00;;;;;;4975077;28;20212;-67
2023/05/10 06:48:52;;;;;;;0.57;0.57;;;19.50;68.00;;;;;;4958435;28;20616;-68
2023/05/10 06:51:17;;;;;;;0.60;0.57;;;19.50;68.00;;;;;;4958174;28;20311;-66
2023/05/10 06:53:43;;;;;;;0.70;0.70;;;19.50;68.00;;;;;;4957895;28;20264;-67
2023/05/10 06:56:09;;;;;;;0.80;0.80;;;19.50;68.00;;;;;;4957805;28;20222;-67
2023/05/10 06:58:34;;;;;;;0.95;0.60;;;19.50;67.90;;;;;;4942047;28;20181;-68
2023/05/10 07:01:05;;;;;;;0.80;0.80;;;19.50;68.00;;;;;;4975211;28;20182;-67
2023/05/10 07:03:31;;;;;;;0.75;0.75;;;19.50;67.90;;;;;;4942071;28;20204;-66
2023/05/10 07:06:06;;;;;;;2.70;0.80;;;19.50;67.90;;;;;;4974952;28;20279;-66
2023/05/10 07:08:35;;;;;;;1.00;0.60;;;19.50;67.90;;;;;;4970665;28;20249;-67
2023/05/10 07:11:04;;;;;;;0.95;0.75;;;19.50;67.90;;;;;;4954045;28;20280;-67
2023/05/10 07:13:33;;;;;;;2.83;0.90;;;19.50;67.90;;;;;;4957307;28;20217;-67
2023/05/10 07:16:01;;;;;;;1.27;0.90;;;19.50;67.90;;;;;;4957545;28;20209;-68
2023/05/10 07:18:28;;;;;;;0.70;0.68;;;19.50;67.90;;;;;;4957741;28;20202;-68
2023/05/10 07:20:53;;;;;;;0.70;0.70;;;19.50;68.70;;;;;;4965686;28;20212;-68
2023/05/10 07:23:19;;;;;;;0.70;0.70;;;19.50;67.90;;;;;;4981736;28;20670;-68
2023/05/10 07:25:47;;;;;;;0.93;0.60;;;19.50;67.90;;;;;;4957536;28;20218;-68
2023/05/10 07:28:15;;;;;;;0.60;0.60;;;19.50;68.70;;;;;;4957396;28;20259;-67
2023/05/10 07:30:42;;;;;;;0.73;0.73;;;19.50;67.90;;;;;;4989542;28;20205;-68
2023/05/10 07:33:09;;;;;;;0.65;0.63;;;19.50;67.90;;;;;;4974249;28;20224;-67
2023/05/10 07:35:35;;;;;;;0.63;0.60;;;19.50;67.90;;;;;;4956921;28;20240;-67
2023/05/10 07:38:02;;;;;;;0.75;0.60;;;19.50;67.90;;;;;;4957552;28;20208;-67
2023/05/10 07:40:29;;;;;;;0.60;0.50;;;19.50;67.90;;;;;;4957530;28;20185;-67
2023/05/10 07:42:54;;;;;;;0.65;0.60;;;19.50;67.90;;;;;;4941103;28;20193;-68
2023/05/10 07:45:20;;;;;;;0.85;0.85;;;19.50;67.90;;;;;;4972906;28;20217;-67
2023/05/10 07:47:46;;;;;;;0.60;0.60;;;19.50;67.90;;;;;;4957123;28;20198;-67
2023/05/10 07:50:12;;;;;;;1.02;0.60;;;19.50;67.80;;;;;;4974418;28;20251;-68
2023/05/10 07:52:38;;;;;;;0.63;0.60;;;19.50;67.80;;;;;;4956923;28;20218;-67
2023/05/10 07:55:04;;;;;;;1.38;0.60;;;19.50;67.80;;;;;;4956821;28;20225;-68
2023/05/10 07:57:30;;;;;;;1.38;0.80;;;19.50;67.90;;;;;;4956653;28;20652;-68
2023/05/10 07:59:56;;;;;;;1.02;0.68;;;19.50;67.80;;;;;;4956763;28;20336;-68
2023/05/10 08:02:22;;;;;;;0.68;0.55;;;19.50;67.70;;;;;;4940699;28;20748;-67
2023/05/10 08:04:47;;;;;;;0.88;0.65;;;19.50;67.80;;;;;;4956604;28;20263;-67
2023/05/10 08:07:13;;;;;;;0.60;0.60;;;19.50;67.70;;;;;;4956359;28;20200;-68
2023/05/10 08:09:39;;;;;;;0.70;0.70;;;19.50;67.70;;;;;;4956695;28;20247;-68
2023/05/10 08:12:05;;;;;;;0.93;0.60;;;19.50;67.60;;;;;;4956561;28;20705;-67
2023/05/10 08:14:31;;;;;;;0.75;0.70;;;19.50;67.60;;;;;;4956281;28;20229;-67
2023/05/10 08:16:57;;;;;;;1.55;0.70;;;19.50;67.60;;;;;;4972501;28;20209;-67
2023/05/10 08:19:23;;;;;;;1.30;0.60;;;19.50;67.60;;;;;;4940443;28;20198;-67
2023/05/10 08:21:49;;;;;;;1.65;0.70;;;19.50;67.50;;;;;;4956603;28;20182;-67
2023/05/10 08:24:15;;;;;;;0.50;0.50;;;19.60;67.60;;;;;;4956257;28;20212;-66
2023/05/10 08:26:41;;;;;;;0.60;0.60;;;19.50;67.50;;;;;;4956290;28;20248;-67
2023/05/10 08:29:06;;;;;;;0.50;0.50;;;19.50;67.50;;;;;;4972263;28;20193;-67
2023/05/10 08:31:32;;;;;;;1.38;0.52;;;19.50;67.50;;;;;;4956098;28;20190;-68
2023/05/10 08:33:58;;;;;;;0.80;0.52;;;19.50;67.50;;;;;;4973564;28;20213;-67
2023/05/10 08:36:24;;;;;;;0.60;0.60;;;19.60;67.60;;;;;;4955898;28;20214;-68
2023/05/10 08:38:53;;;;;;;0.65;0.50;;;19.60;67.60;;;;;;4956185;28;20212;-68
2023/05/10 08:41:25;;;;;;;0.80;0.80;;;19.60;67.60;;;;;;4973505;28;20725;-67
2023/05/10 08:43:55;;;;;;;0.82;0.70;;;19.60;67.60;;;;;;4971966;28;20194;-68
2023/05/10 08:46:23;;;;;;;0.85;0.45;;;19.60;67.50;;;;;;4955786;28;20222;-67
2023/05/10 08:48:51;;;;;;;1.92;0.80;;;19.60;67.60;;;;;;4940194;28;20685;-68
2023/05/10 08:51:25;;;;;;;0.60;0.60;;;19.60;67.50;;;;;;4956277;28;20740;-67
2023/05/10 08:53:51;;;;;;;0.57;0.57;;;19.60;67.40;;;;;;4973396;28;20205;-68
2023/05/10 08:56:17;;;;;;;0.70;0.60;;;19.60;67.30;;;;;;4955621;28;20240;-67
2023/05/10 08:58:43;;;;;;;0.70;0.65;;;19.60;67.40;;;;;;4956048;28;20182;-67
2023/05/10 09:01:10;;;;;;;0.50;0.50;;;19.60;67.30;;;;;;4955986;28;20190;-67
2023/05/10 09:03:39;;;;;;;0.93;0.70;;;19.60;67.20;;;;;;4973128;28;20193;-68
2023/05/10 09:06:05;;;;;;;0.88;0.80;;;19.60;67.30;;;;;;4955824;28;20209;-68
2023/05/10 09:08:31;;;;;;;1.00;0.55;;;19.60;67.30;;;;;;4955961;28;20192;-68
2023/05/10 09:10:57;;;;;;;0.70;0.60;;;19.60;67.20;;;;;;4972332;28;20196;-67
2023/05/10 09:13:24;;;;;;;0.73;0.73;;;19.70;67.40;;;;;;4955902;28;20205;-67
2023/05/10 09:15:52;;;;;;;0.65;0.60;;;19.60;67.20;;;;;;4955905;28;20265;-68
2023/05/10 09:18:18;;;;;;;0.60;0.60;;;19.70;67.30;;;;;;4955809;28;20245;-67
2023/05/10 09:20:44;;;;;;;0.98;0.90;;;19.70;67.30;;;;;;4956100;28;20289;-68
2023/05/10 09:23:10;;;;;;;0.75;0.50;;;19.70;67.20;;;;;;4956000;28;20284;-68
2023/05/10 09:25:38;;;;;;;0.57;0.57;;;19.70;67.20;;;;;;4971432;28;20312;-68
2023/05/10 09:28:08;;;;;;;0.93;0.55;;;19.60;67.00;;;;;;4973008;28;20631;-68
2023/05/10 09:30:35;;;;;;;0.60;0.60;;;19.70;67.10;;;;;;4939573;28;20736;-68
2023/05/10 09:33:01;;;;;;;0.77;0.65;;;19.70;67.10;;;;;;4973164;28;20209;-68
2023/05/10 09:35:30;;;;;;;0.60;0.60;;;19.70;67.30;;;;;;4955568;28;20301;-67
2023/05/10 09:38:00;;;;;;;0.60;0.60;;;19.70;67.20;;;;;;4972950;28;20606;-68
2023/05/10 09:40:28;;;;;;;1.00;0.60;;;19.70;67.20;;;;;;4939516;28;20193;-67
2023/05/10 09:43:03;;;;;;;0.82;0.70;;;19.70;67.00;;;;;;4955881;28;20182;-68
2023/05/10 09:45:34;;;;;;;1.00;0.80;;;19.70;67.40;;;;;;4955492;28;20646;-67
2023/05/10 09:48:02;;;;;;;0.60;0.60;;;19.70;67.60;;;;;;4955651;28;20221;-67
2023/05/10 09:50:29;;;;;;;0.68;0.68;;;19.60;67.60;;;;;;4955474;28;20213;-68
2023/05/10 09:52:59;;;;;;;1.75;0.60;;;19.70;68.00;;;;;;4972647;28;20214;-67
2023/05/10 09:55:41;;;;;;;0.80;0.80;;;19.70;67.60;;;;;;4957495;28;20249;-68
2023/05/10 09:58:10;;;;;;;0.70;0.60;;;19.70;67.50;;;;;;4976487;28;20186;-67
2023/05/10 10:00:44;;;;;;;0.65;0.57;;;19.70;67.20;;;;;;4959235;28;20228;-67
2023/05/10 10:03:16;;;;;;;1.08;0.50;;;19.70;67.30;;;;;;4958878;28;20189;-67
2023/05/10 10:05:43;;;;;;;0.93;0.60;;;19.70;67.20;;;;;;4958534;28;20213;-68
2023/05/10 10:08:10;;;;;;;1.27;0.75;;;19.70;67.50;;;;;;4959271;28;20256;-67
2023/05/10 10:10:36;;;;;;;0.60;0.60;;;19.70;67.60;;;;;;4958777;28;20248;-68
2023/05/10 10:13:02;;;;;;;1.42;0.75;;;19.70;67.60;;;;;;4958940;28;20221;-67
2023/05/10 10:15:28;;;;;;;0.82;0.68;;;19.70;67.40;;;;;;4958394;28;20214;-67
2023/05/10 10:17:54;;;;;;;1.05;0.60;;;19.70;67.40;;;;;;4974821;28;20186;-67
2023/05/10 10:20:22;;;;;;;0.77;0.73;;;19.70;67.30;;;;;;4975976;28;20189;-66
2023/05/10 10:22:49;;;;;;;1.00;0.82;;;19.70;67.20;;;;;;4975982;28;20720;-68
2023/05/10 10:25:17;;;;;;;0.60;0.60;;;19.70;67.20;;;;;;4958382;28;20264;-66
2023/05/10 10:27:51;;;;;;;0.77;0.70;;;19.70;67.20;;;;;;4958486;28;20626;-68
2023/05/10 10:30:41;;;;;;;0.55;0.50;;;19.70;67.10;;;;;;4991040;28;20195;-67
2023/05/10 10:33:55;;;;;;;0.55;0.55;;;19.70;67.10;;;;;;4969688;28;20202;-67
2023/05/10 10:36:21;;;;;;;0.55;0.55;;;19.70;67.00;;;;;;4979638;28;20220;-68
2023/05/10 10:38:46;;;;;;;1.08;0.70;;;19.70;67.00;;;;;;4958732;28;20189;-68
2023/05/10 10:41:43;;;;;;;0.68;0.65;;;19.70;66.90;;;;;;4942268;28;20187;-68
2023/05/10 10:44:33;;;;;;;0.85;0.50;;;19.70;66.90;;;;;;4942093;28;20641;-67
2023/05/10 10:47:30;;;;;;;0.60;0.60;;;19.70;67.10;;;;;;4968056;28;20189;-67
2023/05/10 10:50:07;;;;;;;0.50;0.50;;;19.70;67.00;;;;;;4961360;28;20201;-68
2023/05/10 10:52:38;;;;;;;0.52;0.52;;;19.70;66.90;;;;;;4956394;28;20227;-68
2023/05/10 10:55:08;;;;;;;0.60;0.60;;;19.70;67.00;;;;;;4957843;28;20217;-67
2023/05/10 10:57:43;;;;;;;0.63;0.60;;;19.60;66.80;;;;;;4941670;28;20236;-68
2023/05/10 11:00:30;;;;;;;0.55;0.50;;;19.60;66.90;;;;;;4958127;28;20197;-67
2023/05/10 11:03:14;;;;;;;1.88;0.52;;;19.70;67.00;;;;;;4970906;28;20685;-68
2023/05/10 11:06:01;;;;;;;1.40;0.50;;;19.60;67.00;;;;;;4956396;28;20315;-68
2023/05/10 11:08:29;;;;;;;0.77;0.77;;;19.60;67.30;;;;;;4958137;28;20193;-67
2023/05/10 11:11:00;;;;;;;0.70;0.60;;;19.60;66.90;;;;;;4941761;28;20334;-67
2023/05/10 11:13:38;;;;;;;0.50;0.50;;;19.60;66.90;;;;;;4941418;28;20697;-67
2023/05/10 11:16:41;;;;;;;0.60;0.60;;;19.60;66.90;;;;;;4941765;28;20215;-68
2023/05/10 11:19:10;;;;;;;0.50;0.50;;;19.60;66.80;;;;;;4936648;28;20220;-67
2023/05/10 11:21:47;;;;;;;1.02;0.82;;;19.70;67.00;;;;;;4957437;28;20194;-67
2023/05/10 11:24:20;;;;;;;0.60;0.60;;;19.70;67.00;;;;;;4974667;28;20201;-67
2023/05/10 11:26:51;;;;;;;0.57;0.50;;;19.70;66.90;;;;;;4953951;29;20209;-68
2023/05/10 11:29:17;;;;;;;0.93;0.70;;;19.70;67.00;;;;;;4969909;28;20204;-68
2023/05/10 11:31:48;;;;;;;0.47;0.43;;;19.70;67.00;;;;;;4965235;28;20197;-67
2023/05/10 11:34:30;;;;;;;0.50;0.40;;;19.70;66.90;;;;;;4957229;28;20213;-68
2023/05/10 11:36:57;;;;;;;0.55;0.55;;;19.70;66.90;;;;;;4957114;28;20226;-68
2023/05/10 11:39:28;;;;;;;1.20;0.57;;;19.70;67.00;;;;;;4956663;28;20279;-67
2023/05/10 11:41:54;;;;;;;0.65;0.65;;;19.70;66.90;;;;;;4957262;28;20229;-68
2023/05/10 11:44:20;;;;;;;0.88;0.50;;;19.70;66.60;;;;;;4974776;28;20189;-67
2023/05/10 11:46:46;;;;;;;0.60;0.60;;;19.70;66.60;;;;;;4956733;28;20185;-66
2023/05/10 11:49:13;;;;;;;0.40;0.40;;;19.70;66.80;;;;;;4941169;28;20200;-67
2023/05/10 11:51:43;;;;;;;1.17;0.68;;;19.70;66.60;;;;;;4956571;28;20190;-66
2023/05/10 11:54:11;;;;;;;0.60;0.60;;;19.70;66.80;;;;;;4940570;28;20225;-67
2023/05/10 11:56:41;;;;;;;0.73;0.73;;;19.70;67.40;;;;;;4973992;28;20194;-68
2023/05/10 11:59:07;;;;;;;0.60;0.60;;;19.70;66.60;;;;;;4974121;28;20182;-68
2023/05/10 12:01:34;;;;;;;0.50;0.50;;;19.70;66.70;;;;;;4972982;28;20194;-66
2023/05/10 12:04:01;;;;;;;0.60;0.60;;;19.70;66.90;;;;;;4956593;28;20236;-68
2023/05/10 12:06:30;;;;;;;0.70;0.60;;;19.70;66.80;;;;;;4956660;28;20713;-67
2023/05/10 12:08:57;;;;;;;0.93;0.50;;;19.70;66.70;;;;;;4969849;28;20190;-67
2023/05/10 12:11:28;;;;;;;0.70;0.70;;;19.70;66.60;;;;;;4953419;28;20198;-68
2023/05/10 12:13:56;;;;;;;0.85;0.80;;;19.70;66.60;;;;;;4956767;28;20209;-69
2023/05/10 12:16:29;;;;;;;1.33;0.70;;;19.70;66.60;;;;;;4956289;28;20272;-69
2023/05/10 12:18:59;;;;;;;0.68;0.63;;;19.70;66.60;;;;;;4932431;28;20213;-68
2023/05/10 12:21:27;;;;;;;0.60;0.60;;;19.70;66.60;;;;;;4956715;28;20251;-69
2023/05/10 12:24:00;;;;;;;0.70;0.70;;;19.70;66.60;;;;;;4966084;28;20189;-68
2023/05/10 12:26:28;;;;;;;0.50;0.50;;;19.70;66.90;;;;;;4956025;28;20225;-68
2023/05/10 12:28:55;;;;;;;0.60;0.60;;;19.70;66.60;;;;;;4956231;28;20196;-69
2023/05/10 12:31:21;;;;;;;1.42;0.77;;;19.70;66.60;;;;;;4988433;28;20236;-68
2023/05/10 12:33:49;;;;;;;1.02;0.70;;;19.70;66.90;;;;;;4956105;28;20245;-69
2023/05/10 12:36:16;;;;;;;0.57;0.57;;;19.70;67.10;;;;;;4956301;28;20260;-68
2023/05/10 12:38:47;;;;;;;0.50;0.50;;;19.70;66.70;;;;;;4956330;28;20213;-68
2023/05/10 12:41:18;;;;;;;1.25;0.60;;;19.70;66.90;;;;;;4973609;28;20204;-69
2023/05/10 12:43:45;;;;;;;0.55;0.55;;;19.70;66.60;;;;;;4956292;28;20550;-68
2023/05/10 12:46:17;;;;;;;0.57;0.52;;;19.70;66.60;;;;;;4956039;28;20213;-68
2023/05/10 12:48:44;;;;;;;1.30;0.70;;;19.70;66.60;;;;;;4955998;28;20237;-68
2023/05/10 12:51:11;;;;;;;1.55;0.68;;;19.60;66.80;;;;;;4972123;28;20236;-68
2023/05/10 12:53:39;;;;;;;0.88;0.63;;;19.70;66.80;;;;;;4955928;28;20214;-67
2023/05/10 12:56:05;;;;;;;0.70;0.70;;;19.70;66.60;;;;;;4955868;28;20268;-68
2023/05/10 12:58:31;;;;;;;1.02;0.60;;;19.70;66.40;;;;;;4939915;28;20220;-68